createdAt,value
2017-11-05T00:00:40.551Z,86.6
2017-11-05T00:03:38.228Z,86.7
2017-11-05T00:08:34.035Z,86.6
2017-11-05T00:09:33.045Z,86.7
2017-11-05T00:10:32.081Z,86.8
2017-11-05T00:14:28.739Z,87
2017-11-05T00:15:27.895Z,86.9
2017-11-05T00:19:24.195Z,87
2017-11-05T00:20:23.339Z,87
2017-11-05T00:26:18.411Z,86.9
2017-11-05T00:26:49.015Z,86.9
2017-11-05T00:28:16.478Z,86.9
2017-11-05T00:33:12.290Z,87.1
2017-11-05T00:35:10.683Z,87.1
2017-11-05T00:35:41.145Z,87.1
2017-11-05T00:36:11.370Z,87.1
2017-11-05T00:36:41.594Z,87.1
2017-11-05T00:43:03.566Z,86.9
2017-11-05T00:44:02.850Z,86.8
2017-11-05T00:46:00.874Z,86.7
2017-11-05T00:46:59.891Z,86.6
2017-11-05T00:47:30.354Z,86.6
2017-11-05T00:49:57.444Z,86.5
2017-11-05T00:52:55.097Z,86.5
2017-11-05T00:53:54.391Z,86.7
2017-11-05T00:57:50.817Z,86.8
2017-11-05T00:58:49.832Z,86.8
2017-11-05T01:00:48.225Z,86.8
2017-11-05T01:03:45.502Z,86.5
2017-11-05T01:06:42.646Z,86.3
2017-11-05T01:08:41.053Z,86.3
2017-11-05T01:09:40.456Z,86.5
2017-11-05T01:11:38.346Z,86.5
2017-11-05T01:15:35.262Z,86.6
2017-11-05T01:16:34.049Z,86.7
2017-11-05T01:17:33.349Z,86.6
2017-11-05T01:18:32.382Z,86.4
2017-11-05T01:19:02.840Z,86.4
2017-11-05T01:19:33.038Z,86.1
2017-11-05T01:20:03.489Z,86.1
2017-11-05T01:20:33.812Z,86.2
2017-11-05T01:21:30.200Z,86.2
2017-11-05T01:23:28.093Z,86.3
2017-11-05T01:25:26.766Z,86.4
2017-11-05T01:27:24.522Z,86.7
2017-11-05T01:44:10.041Z,86.4
2017-11-05T01:48:06.603Z,86.5
2017-11-05T01:51:04.026Z,86.7
2017-11-05T01:52:02.798Z,86.7
2017-11-05T01:53:02.316Z,86.8
2017-11-05T01:55:00.605Z,86.9
2017-11-05T01:57:58.167Z,87.2
2017-11-05T02:01:54.454Z,87.1
2017-11-05T02:02:53.856Z,87.1
2017-11-05T02:06:50.013Z,87
2017-11-05T02:08:48.434Z,86.9
2017-11-05T02:11:45.715Z,87.2
2017-11-05T02:12:45.222Z,87.1
2017-11-05T02:13:44.127Z,87.1
2017-11-05T02:14:43.138Z,87.1
2017-11-05T02:15:13.582Z,87.1
2017-11-05T02:15:44.272Z,87
2017-11-05T02:22:36.071Z,87.3
2017-11-05T02:24:34.332Z,87.3
2017-11-05T02:26:32.856Z,87.4
2017-11-05T02:32:27.555Z,87.5
2017-11-05T02:33:26.828Z,87.5
2017-11-05T02:34:25.832Z,87.4
2017-11-05T02:36:23.995Z,87.6
2017-11-05T02:37:23.273Z,87.6
2017-11-05T02:38:22.188Z,87.6
2017-11-05T02:39:21.470Z,87.6
2017-11-05T02:40:20.509Z,87.5
2017-11-05T02:42:18.927Z,87.4
2017-11-05T02:44:17.097Z,87.3
2017-11-05T02:46:15.506Z,87.5
2017-11-05T02:47:14.524Z,87.6
2017-11-05T02:51:11.189Z,87.5
2017-11-05T02:53:09.627Z,87.6
2017-11-05T02:55:07.295Z,87.7
2017-11-05T02:55:37.616Z,87.7
2017-11-05T02:57:05.949Z,87.6
2017-11-05T02:58:04.834Z,87.7
2017-11-05T02:59:03.843Z,87.6
2017-11-05T03:01:02.240Z,87.5
2017-11-05T03:05:57.932Z,87.5
2017-11-05T03:06:28.396Z,87.5
2017-11-05T03:07:55.990Z,87.5
2017-11-05T03:09:54.510Z,87.6
2017-11-05T03:10:53.512Z,87.6
2017-11-05T03:13:51.293Z,87.6
2017-11-05T03:16:48.192Z,87.7
2017-11-05T03:19:45.732Z,87.9
2017-11-05T03:23:42.256Z,87.7
2017-11-05T03:24:41.394Z,87.8
2017-11-05T03:26:39.545Z,87.8
2017-11-05T03:27:38.685Z,87.8
2017-11-05T03:29:37.336Z,87.8
2017-11-05T03:33:33.764Z,87.5
2017-11-05T03:34:32.406Z,87.5
2017-11-05T03:37:30.333Z,87.3
2017-11-05T03:38:00.441Z,87.3
2017-11-05T03:41:26.322Z,87.3
2017-11-05T03:42:25.714Z,87.4
2017-11-05T03:43:24.738Z,87.5
2017-11-05T03:45:23.014Z,87.7
2017-11-05T03:46:22.032Z,87.7
2017-11-05T03:52:16.860Z,87.2
2017-11-05T03:53:16.115Z,87.1
2017-11-05T03:54:15.399Z,87.2
2017-11-05T03:58:11.841Z,87.3
2017-11-05T04:00:09.886Z,87.3
2017-11-05T04:01:09.067Z,87.3
2017-11-05T04:04:06.243Z,87.2
2017-11-05T04:05:05.390Z,87.2
2017-11-05T04:06:04.787Z,87.3
2017-11-05T04:08:03.319Z,87.6
2017-11-05T04:10:01.350Z,87.6
2017-11-05T04:11:00.386Z,87.7
2017-11-05T04:11:59.557Z,87.8
2017-11-05T04:16:55.109Z,87.7
2017-11-05T04:18:53.386Z,87.7
2017-11-05T04:20:51.548Z,87.7
2017-11-05T04:21:50.826Z,87.7
2017-11-05T04:25:47.122Z,87.9
2017-11-05T04:26:17.217Z,87.9
2017-11-05T04:27:45.565Z,88.1
2017-11-05T04:28:44.448Z,88.1
2017-11-05T04:29:43.963Z,88.3
2017-11-05T04:30:42.745Z,88.6
2017-11-05T04:31:42.031Z,88.6
2017-11-05T04:32:41.044Z,88.7
2017-11-05T04:33:40.196Z,88.8
2017-11-05T04:35:38.363Z,89.1
2017-11-05T04:37:36.900Z,89.2
2017-11-05T04:38:35.688Z,89.2
2017-11-05T04:40:34.087Z,89.3
2017-11-05T04:44:30.393Z,89.4
2017-11-05T04:45:29.674Z,89.6
2017-11-05T04:46:28.697Z,89.6
2017-11-05T04:50:25.106Z,89.8
2017-11-05T04:51:24.488Z,89.8
2017-11-05T04:52:23.389Z,90
2017-11-05T04:55:20.808Z,90.1
2017-11-05T04:56:19.831Z,90.2
2017-11-05T04:57:18.847Z,90.2
2017-11-05T04:58:18.360Z,90.2
2017-11-05T05:00:16.387Z,90.6
2017-11-05T05:03:13.844Z,91.2
2017-11-05T05:04:12.988Z,91.3
2017-11-05T05:05:11.778Z,91.2
2017-11-05T05:06:11.436Z,91.1
2017-11-05T05:07:09.941Z,90.9
2017-11-05T05:08:09.461Z,91
2017-11-05T05:08:40.053Z,91
2017-11-05T05:10:07.623Z,90.8
2017-11-05T05:11:06.506Z,91.2
2017-11-05T05:12:05.888Z,91
2017-11-05T05:18:59.840Z,90.7
2017-11-05T05:20:57.897Z,90.8
2017-11-05T05:21:56.921Z,90.7
2017-11-05T05:22:55.944Z,90.8
2017-11-05T05:23:54.957Z,90.9
2017-11-05T05:24:54.107Z,91.1
2017-11-05T05:26:52.372Z,91.2
2017-11-05T05:28:50.806Z,91.2
2017-11-05T05:30:49.097Z,91.4
2017-11-05T05:31:48.252Z,91.4
2017-11-05T05:33:46.282Z,91.5
2017-11-05T05:34:45.292Z,91.5
2017-11-05T05:35:44.678Z,91.7
2017-11-05T05:36:43.832Z,91.7
2017-11-05T05:37:42.605Z,91.7
2017-11-05T05:38:41.891Z,91.6
2017-11-05T05:39:41.047Z,91.6
2017-11-05T05:40:40.056Z,91.7
2017-11-05T05:41:39.341Z,91.7
2017-11-05T05:42:38.355Z,91.6
2017-11-05T05:43:37.502Z,92
2017-11-05T05:44:36.522Z,91.9
2017-11-05T05:45:35.412Z,91.9
2017-11-05T05:46:34.563Z,91.8
2017-11-05T05:48:32.985Z,91.8
2017-11-05T05:49:32.267Z,92
2017-11-05T05:50:31.422Z,92
2017-11-05T05:51:30.195Z,92
2017-11-05T05:53:28.727Z,92.2
2017-11-05T05:54:27.615Z,92.3
2017-11-05T05:55:26.631Z,92.4
2017-11-05T05:56:25.883Z,92.4
2017-11-05T05:58:23.909Z,92.5
2017-11-05T05:59:23.184Z,92.7
2017-11-05T06:00:22.462Z,92.8
2017-11-05T06:01:21.108Z,93.3
2017-11-05T06:04:18.762Z,93.5
2017-11-05T06:06:16.793Z,93.6
2017-11-05T06:08:15.189Z,93.7
2017-11-05T06:09:13.985Z,93.7
2017-11-05T06:10:13.137Z,93.7
2017-11-05T06:11:12.144Z,93.7
2017-11-05T06:12:11.160Z,93.7
2017-11-05T06:13:10.828Z,93.7
2017-11-05T06:14:09.709Z,93.8
2017-11-05T06:15:08.856Z,93.9
2017-11-05T06:16:08.007Z,94
2017-11-05T06:17:07.019Z,94.2
2017-11-05T06:18:06.034Z,94.5
2017-11-05T06:19:05.328Z,94.6
2017-11-05T06:20:04.338Z,94.6
2017-11-05T06:21:03.486Z,94.6
2017-11-05T06:22:02.498Z,94.7
2017-11-05T06:24:59.917Z,94.6
2017-11-05T06:25:59.062Z,94.5
2017-11-05T06:26:58.109Z,94.5
2017-11-05T06:27:57.254Z,94.4
2017-11-05T06:28:56.418Z,94.4
2017-11-05T06:29:55.060Z,94.3
2017-11-05T06:30:54.569Z,94.3
2017-11-05T06:31:53.211Z,94.2
2017-11-05T06:32:52.499Z,94.2
2017-11-05T06:33:51.884Z,94.2
2017-11-05T06:34:51.025Z,94.1
2017-11-05T06:35:49.808Z,94.1
2017-11-05T06:36:49.188Z,94.1
2017-11-05T06:38:47.219Z,94.1
2017-11-05T06:40:45.496Z,94.1
2017-11-05T06:41:44.640Z,94
2017-11-05T06:43:42.671Z,94
2017-11-05T06:44:13.233Z,94
2017-11-05T06:45:41.076Z,93.9
2017-11-05T06:46:40.346Z,93.9
2017-11-05T06:47:39.132Z,93.8
2017-11-05T06:48:38.016Z,93.7
2017-11-05T06:49:37.658Z,93.7
2017-11-05T06:50:36.438Z,93.6
2017-11-05T06:51:35.459Z,93.6
2017-11-05T06:52:34.851Z,93.5
2017-11-05T06:53:33.998Z,93.5
2017-11-05T06:54:04.696Z,93.5
2017-11-05T06:54:35.158Z,93.5
2017-11-05T06:55:05.486Z,93.5
2017-11-05T06:56:31.048Z,92.9
2017-11-05T06:57:30.334Z,92.7
2017-11-05T06:58:29.485Z,92.3
2017-11-05T06:59:28.673Z,92
2017-11-05T07:00:27.315Z,91.7
2017-11-05T07:01:26.463Z,91.6
2017-11-05T07:03:24.998Z,91.4
2017-11-05T07:04:23.910Z,91.4
2017-11-05T07:05:23.070Z,91.3
2017-11-05T07:06:22.356Z,90.6
2017-11-05T07:07:21.131Z,90.5
2017-11-05T07:08:20.551Z,90.5
2017-11-05T07:09:19.574Z,90.5
2017-11-05T07:10:18.454Z,90.2
2017-11-05T07:11:17.621Z,90.2
2017-11-05T07:12:16.895Z,90.2
2017-11-05T07:13:16.191Z,90.2
2017-11-05T07:16:13.338Z,89.7
2017-11-05T07:17:12.219Z,89.7
2017-11-05T07:18:11.378Z,89.8
2017-11-05T07:19:10.392Z,89.8
2017-11-05T07:20:09.908Z,89.9
2017-11-05T07:21:08.917Z,89.8
2017-11-05T07:23:07.318Z,89.6
2017-11-05T07:24:06.219Z,89.5
2017-11-05T07:25:05.238Z,89.4
2017-11-05T07:26:04.254Z,89.3
2017-11-05T07:26:34.583Z,89.3
2017-11-05T07:27:04.923Z,89.2
2017-11-05T07:27:35.382Z,89.2
2017-11-05T07:28:06.083Z,89.3
2017-11-05T07:29:01.813Z,88.9
2017-11-05T07:30:00.823Z,88.7
2017-11-05T07:30:59.842Z,88.7
2017-11-05T07:31:59.498Z,88.2
2017-11-05T07:32:58.411Z,88.1
2017-11-05T07:33:57.428Z,87.7
2017-11-05T07:34:27.893Z,87.7
2017-11-05T07:35:55.861Z,87
2017-11-05T07:36:26.086Z,87
2017-11-05T07:36:56.176Z,86.9
2017-11-05T07:37:26.660Z,86.9
2017-11-05T07:37:56.887Z,86.6
2017-11-05T07:38:27.347Z,86.6
2017-11-05T07:39:52.429Z,86.8
2017-11-05T07:40:51.336Z,86.9
2017-11-05T07:42:49.628Z,86.9
2017-11-05T07:43:48.656Z,87.7
2017-11-05T07:44:47.535Z,88
2017-11-05T07:45:47.188Z,88
2017-11-05T07:46:45.958Z,87.8
2017-11-05T07:47:44.986Z,87.8
2017-11-05T07:50:42.283Z,87.9
2017-11-05T07:51:41.670Z,87.9
2017-11-05T07:52:40.831Z,87.9
2017-11-05T07:53:39.980Z,87.3
2017-11-05T07:54:39.134Z,87
2017-11-05T07:55:37.925Z,86.8
2017-11-05T07:56:37.377Z,86.7
2017-11-05T07:57:36.524Z,87
2017-11-05T07:58:35.405Z,86.7
2017-11-05T07:59:34.551Z,86.8
2017-11-05T08:00:33.738Z,87.3
2017-11-05T08:01:32.903Z,87
2017-11-05T08:02:32.050Z,87
2017-11-05T08:03:31.064Z,87.3
2017-11-05T08:04:30.218Z,87.3
2017-11-05T08:05:29.237Z,87.1
2017-11-05T08:06:28.512Z,87
2017-11-05T08:07:28.029Z,86.8
2017-11-05T08:08:26.990Z,86.8
2017-11-05T08:09:26.136Z,87.3
2017-11-05T08:10:24.916Z,87.7
2017-11-05T08:11:23.938Z,88.9
2017-11-05T08:12:23.230Z,88.7
2017-11-05T08:13:22.247Z,87.1
2017-11-05T08:14:21.531Z,87.1
2017-11-05T08:15:21.055Z,87.1
2017-11-05T08:16:19.951Z,87.1
2017-11-05T08:16:50.517Z,87.1
2017-11-05T08:18:18.212Z,87.3
2017-11-05T08:19:17.268Z,87.3
2017-11-05T08:20:16.524Z,87.2
2017-11-05T08:21:15.407Z,87.3
2017-11-05T08:22:14.795Z,87.2
2017-11-05T08:23:13.814Z,87.7
2017-11-05T08:24:12.829Z,87.7
2017-11-05T08:25:12.111Z,87.7
2017-11-05T08:26:11.004Z,87.5
2017-11-05T08:27:10.304Z,87.4
2017-11-05T08:28:09.321Z,87.3
2017-11-05T08:29:08.835Z,87.9
2017-11-05T08:30:07.612Z,87.2
2017-11-05T08:31:07.132Z,86.8
2017-11-05T08:32:06.175Z,86.9
2017-11-05T08:33:05.320Z,87
2017-11-05T08:34:04.340Z,87.7
2017-11-05T08:35:03.364Z,87.3
2017-11-05T08:37:01.535Z,86.3
2017-11-05T08:39:00.059Z,86.7
2017-11-05T08:39:59.342Z,86.6
2017-11-05T08:40:58.491Z,86.7
2017-11-05T08:41:57.783Z,86.9
2017-11-05T08:42:56.799Z,86.2
2017-11-05T08:43:56.093Z,86.1
2017-11-05T08:44:54.609Z,86.9
2017-11-05T08:45:54.272Z,86.3
2017-11-05T08:46:53.177Z,86.5
2017-11-05T08:47:52.370Z,85.9
2017-11-05T08:48:51.510Z,85.9
2017-11-05T08:49:50.925Z,86.3
2017-11-05T08:50:49.679Z,86.2
2017-11-05T08:51:48.828Z,85.4
2017-11-05T08:52:48.223Z,85
2017-11-05T08:53:46.997Z,84.8
2017-11-05T08:54:46.141Z,85.3
2017-11-05T08:55:45.660Z,85.3
2017-11-05T08:56:44.667Z,85
2017-11-05T08:57:43.813Z,85
2017-11-05T08:58:42.972Z,85
2017-11-05T09:00:41.499Z,85
2017-11-05T09:01:40.507Z,85.2
2017-11-05T09:02:39.792Z,85.2
2017-11-05T09:04:37.686Z,86.7
2017-11-05T09:05:36.963Z,85.9
2017-11-05T09:06:36.381Z,85.4
2017-11-05T09:07:35.393Z,85.5
2017-11-05T09:08:34.283Z,86.1
2017-11-05T09:09:33.573Z,85.9
2017-11-05T09:10:32.600Z,85.9
2017-11-05T09:11:31.621Z,85.9
2017-11-05T09:12:31.136Z,85.8
2017-11-05T09:13:01.463Z,85.8
2017-11-05T09:13:32.063Z,85.8
2017-11-05T09:14:02.666Z,85.8
2017-11-05T09:14:32.992Z,85.7
2017-11-05T09:15:28.629Z,85.6
2017-11-05T09:16:27.780Z,86
2017-11-05T09:17:26.687Z,86.2
2017-11-05T09:18:26.107Z,85.4
2017-11-05T09:19:25.394Z,84.6
2017-11-05T09:20:24.055Z,85.4
2017-11-05T09:21:23.209Z,85.4
2017-11-05T09:22:22.762Z,85.4
2017-11-05T09:23:23.394Z,85.5
2017-11-05T09:23:53.984Z,85.5
2017-11-05T09:25:19.928Z,86.4
2017-11-05T09:26:19.436Z,86
2017-11-05T09:27:18.083Z,85.5
2017-11-05T09:28:17.471Z,84.9
2017-11-05T09:29:16.489Z,84.1
2017-11-05T09:30:15.635Z,83.7
2017-11-05T09:31:15.025Z,83.7
2017-11-05T09:32:14.161Z,84.3
2017-11-05T09:33:13.168Z,84.2
2017-11-05T09:34:12.705Z,84.1
2017-11-05T09:35:11.725Z,83.4
2017-11-05T09:36:10.634Z,83.8
2017-11-05T09:37:09.785Z,83.8
2017-11-05T09:38:08.933Z,83.7
2017-11-05T09:39:07.953Z,84.1
2017-11-05T09:40:07.098Z,84.2
2017-11-05T09:41:06.384Z,82.8
2017-11-05T09:42:05.535Z,83.1
2017-11-05T09:43:04.563Z,83.2
2017-11-05T09:44:03.946Z,84
2017-11-05T09:45:03.238Z,81.1
2017-11-05T09:46:02.387Z,80.6
2017-11-05T09:48:00.787Z,80
2017-11-05T09:48:59.799Z,80.7
2017-11-05T09:49:58.952Z,79.7
2017-11-05T09:50:58.378Z,79.1
2017-11-05T09:51:57.529Z,79.2
2017-11-05T09:52:56.177Z,79.8
2017-11-05T09:53:26.877Z,79.8
2017-11-05T09:53:57.476Z,80.3
2017-11-05T09:54:27.810Z,80.3
2017-11-05T09:54:58.281Z,80
2017-11-05T09:55:28.751Z,80
2017-11-05T09:56:53.340Z,79.7
2017-11-05T09:57:51.984Z,79.2
2017-11-05T09:58:51.240Z,78.4
2017-11-05T09:59:50.900Z,78.8
2017-11-05T10:00:49.686Z,78.5
2017-11-05T10:01:48.844Z,78.6
2017-11-05T10:02:48.123Z,78
2017-11-05T10:03:47.268Z,78.5
2017-11-05T10:04:17.994Z,78.5
2017-11-05T10:04:48.079Z,77.6
2017-11-05T10:05:18.408Z,77.6
2017-11-05T10:05:49.013Z,78.7
2017-11-05T10:06:19.344Z,78.7
2017-11-05T10:07:44.151Z,76.9
2017-11-05T10:08:43.170Z,76.6
2017-11-05T10:09:42.320Z,76.2
2017-11-05T10:10:41.469Z,76
2017-11-05T10:11:40.613Z,76.1
2017-11-05T10:12:40.134Z,76.1
2017-11-05T10:13:39.304Z,75.3
2017-11-05T10:14:38.331Z,74.6
2017-11-05T10:15:37.479Z,75
2017-11-05T10:16:36.506Z,74.8
2017-11-05T10:17:35.657Z,74.5
2017-11-05T10:18:34.947Z,74.7
2017-11-05T10:19:34.104Z,74
2017-11-05T10:20:33.259Z,73.6
2017-11-05T10:21:32.138Z,73.9
2017-11-05T10:22:31.792Z,74.5
2017-11-05T10:23:30.543Z,74.6
2017-11-05T10:24:29.689Z,73.6
2017-11-05T10:25:29.205Z,73.3
2017-11-05T10:27:27.359Z,72.8
2017-11-05T10:28:26.742Z,72.4
2017-11-05T10:29:26.154Z,72.6
2017-11-05T10:30:24.938Z,73.3
2017-11-05T10:32:23.471Z,72.5
2017-11-05T10:34:21.603Z,73.5
2017-11-05T10:35:21.123Z,73.8
2017-11-05T10:36:20.138Z,71.8
2017-11-05T10:37:19.284Z,71.3
2017-11-05T10:37:49.749Z,71.3
2017-11-05T10:38:20.101Z,71.8
2017-11-05T10:39:17.879Z,71.7
2017-11-05T10:40:16.799Z,71.9
2017-11-05T10:41:16.089Z,72.7
2017-11-05T10:42:15.380Z,71.9
2017-11-05T10:43:14.545Z,71.9
2017-11-05T10:44:13.591Z,73.2
2017-11-05T10:45:12.875Z,72.2
2017-11-05T10:46:11.905Z,72.1
2017-11-05T10:46:42.364Z,72.1
2017-11-05T10:47:12.696Z,70.9
2017-11-05T10:47:43.285Z,70.9
2017-11-05T10:48:13.747Z,71.7
2017-11-05T10:49:09.369Z,72.6
2017-11-05T10:50:08.895Z,71.4
2017-11-05T10:51:08.310Z,71
2017-11-05T10:52:06.951Z,71.1
2017-11-05T10:53:06.745Z,71.3
2017-11-05T10:54:05.625Z,70.6
2017-11-05T10:55:04.906Z,71.5
2017-11-05T10:56:03.806Z,71.9
2017-11-05T10:57:03.094Z,70.8
2017-11-05T10:58:02.110Z,71.8
2017-11-05T10:59:01.393Z,72.1
2017-11-05T11:00:00.903Z,73.2
2017-11-05T11:01:00.321Z,72.9
2017-11-05T11:01:59.343Z,72.9
2017-11-05T11:02:58.118Z,72.9
2017-11-05T11:03:57.389Z,72.6
2017-11-05T11:04:56.662Z,72.7
2017-11-05T11:05:55.699Z,73.1
2017-11-05T11:06:55.483Z,72.4
2017-11-05T11:07:54.370Z,73.1
2017-11-05T11:08:53.517Z,74
2017-11-05T11:09:52.533Z,74
2017-11-05T11:10:51.922Z,74.4
2017-11-05T11:11:51.441Z,73.8
2017-11-05T11:12:50.461Z,73.3
2017-11-05T11:13:49.763Z,73.7
2017-11-05T11:14:49.058Z,75
2017-11-05T11:15:47.694Z,74.5
2017-11-05T11:16:47.213Z,74.1
2017-11-05T11:17:46.357Z,74.9
2017-11-05T11:19:44.761Z,74.4
2017-11-05T11:20:43.773Z,73.8
2017-11-05T11:22:42.344Z,74.9
2017-11-05T11:23:41.460Z,74.1
2017-11-05T11:25:39.996Z,73.8
2017-11-05T11:26:39.134Z,73.7
2017-11-05T11:27:38.284Z,74.5
2017-11-05T11:28:37.701Z,75.3
2017-11-05T11:29:36.714Z,73.6
2017-11-05T11:30:35.764Z,73.2
2017-11-05T11:31:35.016Z,73.4
2017-11-05T11:33:33.413Z,73.9
2017-11-05T11:34:32.933Z,72.1
2017-11-05T11:35:31.952Z,72.2
2017-11-05T11:36:31.095Z,72.3
2017-11-05T11:37:30.383Z,71.9
2017-11-05T11:38:29.532Z,72.8
2017-11-05T11:39:28.680Z,73.7
2017-11-05T11:40:28.329Z,71.9
2017-11-05T11:42:26.232Z,72.1
2017-11-05T11:43:25.622Z,72.1
2017-11-05T11:44:24.901Z,72.7
2017-11-05T11:45:23.780Z,73.5
2017-11-05T11:46:23.165Z,73.5
2017-11-05T11:47:22.679Z,74.5
2017-11-05T11:48:21.469Z,72.6
2017-11-05T11:49:20.623Z,71.6
2017-11-05T11:50:19.777Z,72
2017-11-05T11:51:19.564Z,72.2
2017-11-05T11:52:18.360Z,72.9
2017-11-05T11:53:17.635Z,73.8
2017-11-05T11:54:16.790Z,72.7
2017-11-05T11:55:15.968Z,72.4
2017-11-05T11:56:15.121Z,72.6
2017-11-05T11:57:14.768Z,73.1
2017-11-05T11:58:13.806Z,73.3
2017-11-05T11:59:12.957Z,73.2
2017-11-05T12:00:11.838Z,73.2
2017-11-05T12:01:11.356Z,72.5
2017-11-05T12:02:10.629Z,72.9
2017-11-05T12:03:09.779Z,72.9
2017-11-05T12:04:08.926Z,72.3
2017-11-05T12:05:07.950Z,72.8
2017-11-05T12:06:07.100Z,73.6
2017-11-05T12:07:06.632Z,71.9
2017-11-05T12:08:05.517Z,72
2017-11-05T12:09:05.191Z,72.7
2017-11-05T12:10:04.205Z,72.6
2017-11-05T12:11:03.487Z,72.9
2017-11-05T12:12:02.498Z,72.4
2017-11-05T12:13:01.925Z,73
2017-11-05T12:14:00.810Z,72.4
2017-11-05T12:14:59.959Z,72.1
2017-11-05T12:15:59.612Z,72.3
2017-11-05T12:16:58.520Z,72.1
2017-11-05T12:17:57.953Z,72.6
2017-11-05T12:18:57.091Z,73.2
2017-11-05T12:19:56.351Z,73.2
2017-11-05T12:20:55.364Z,73.4
2017-11-05T12:21:54.381Z,72.4
2017-11-05T12:22:54.034Z,72
2017-11-05T12:24:52.063Z,72.5
2017-11-05T12:25:51.584Z,72.2
2017-11-05T12:26:50.741Z,71.7
2017-11-05T12:27:49.752Z,72.5
2017-11-05T12:28:49.008Z,72.7
2017-11-05T12:29:48.395Z,72.9
2017-11-05T12:30:47.687Z,72.6
2017-11-05T12:31:46.973Z,72.2
2017-11-05T12:32:45.986Z,72
2017-11-05T12:33:45.433Z,72.4
2017-11-05T12:34:44.073Z,73
2017-11-05T12:35:43.602Z,71.8
2017-11-05T12:36:42.489Z,71.8
2017-11-05T12:37:41.765Z,72
2017-11-05T12:38:41.181Z,72.8
2017-11-05T12:39:40.061Z,73.4
2017-11-05T12:41:38.598Z,72.2
2017-11-05T12:43:36.999Z,71.5
2017-11-05T12:44:36.651Z,72.1
2017-11-05T12:45:35.663Z,72.5
2017-11-05T12:46:35.086Z,73
2017-11-05T12:47:33.861Z,71.5
2017-11-05T12:48:33.370Z,72.2
2017-11-05T12:49:32.650Z,72.1
2017-11-05T12:50:31.803Z,72.6
2017-11-05T12:52:30.214Z,72.3
2017-11-05T12:53:29.488Z,72.6
2017-11-05T12:54:28.503Z,72.5
2017-11-05T12:55:27.785Z,72.9
2017-11-05T12:56:26.807Z,73
2017-11-05T12:57:25.822Z,72.6
2017-11-05T12:58:25.612Z,73.2
2017-11-05T12:59:24.405Z,74.2
2017-11-05T13:00:23.563Z,74.3
2017-11-05T13:01:22.854Z,73.6
2017-11-05T13:02:22.244Z,74.6
2017-11-05T13:03:21.387Z,74.7
2017-11-05T13:04:20.424Z,75.3
2017-11-05T13:05:19.942Z,75.2
2017-11-05T13:07:18.472Z,76.2
2017-11-05T13:09:16.368Z,76.3
2017-11-05T13:10:15.662Z,76
2017-11-05T13:11:15.057Z,76.4
2017-11-05T13:12:14.343Z,76.6
2017-11-05T13:13:13.496Z,77
2017-11-05T13:14:12.354Z,77.7
2017-11-05T13:15:12.017Z,77.9
2017-11-05T13:17:10.551Z,77.6
2017-11-05T13:18:09.718Z,78.3
2017-11-05T13:19:08.739Z,77.7
2017-11-05T13:20:08.027Z,77.9
2017-11-05T13:21:07.312Z,78.3
2017-11-05T13:22:06.226Z,79.9
2017-11-05T13:23:05.524Z,79.2
2017-11-05T13:24:04.669Z,79.2
2017-11-05T13:25:03.685Z,80.2
2017-11-05T13:26:03.201Z,80.8
2017-11-05T13:28:01.464Z,81.6
2017-11-05T13:29:00.618Z,81.8
2017-11-05T13:30:59.179Z,82.8
2017-11-05T13:32:57.727Z,83.3
2017-11-05T13:33:56.509Z,83.9
2017-11-05T13:34:55.894Z,83.9
2017-11-05T13:35:55.410Z,84.4
2017-11-05T13:36:54.290Z,84.7
2017-11-05T13:37:53.447Z,85
2017-11-05T13:38:52.587Z,85
2017-11-05T13:39:52.136Z,85.2
2017-11-05T13:40:51.282Z,85.5
2017-11-05T13:44:48.217Z,86.6
2017-11-05T13:46:46.484Z,87.4
2017-11-05T13:47:45.761Z,87.4
2017-11-05T13:49:43.664Z,87.8
2017-11-05T13:50:42.943Z,87.6
2017-11-05T13:51:42.242Z,87.8
2017-11-05T13:53:40.916Z,88.6
2017-11-05T13:54:39.789Z,88.7
2017-11-05T13:55:39.447Z,88.6
2017-11-05T13:56:38.231Z,88.6
2017-11-05T13:57:37.508Z,88.6
2017-11-05T13:58:36.527Z,89
2017-11-05T13:59:35.917Z,89.4
2017-11-05T14:00:35.079Z,89.5
2017-11-05T14:01:34.224Z,89.7
2017-11-05T14:03:32.757Z,90.1
2017-11-05T14:04:31.669Z,90.1
2017-11-05T14:05:31.319Z,90.4
2017-11-05T14:06:30.205Z,90.5
2017-11-05T14:07:29.718Z,90.4
2017-11-05T14:08:28.360Z,90.3
2017-11-05T14:10:27.262Z,90.5
2017-11-05T14:11:26.046Z,91
2017-11-05T14:12:25.568Z,91.1
2017-11-05T14:13:24.581Z,91.9
2017-11-05T14:14:23.593Z,92.3
2017-11-05T14:16:22.286Z,92.9
2017-11-05T14:16:52.979Z,92.9
2017-11-05T14:18:20.684Z,92.8
2017-11-05T14:20:18.949Z,93.5
2017-11-05T14:21:17.841Z,93.6
2017-11-05T14:22:17.129Z,93.6
2017-11-05T14:23:16.293Z,93.8
2017-11-05T14:25:15.099Z,94.1
2017-11-05T14:27:13.406Z,94.4
2017-11-05T14:28:12.680Z,95
2017-11-05T14:29:11.457Z,95.1
2017-11-05T14:32:08.867Z,94.9
2017-11-05T14:33:08.146Z,95
2017-11-05T14:34:07.427Z,95.2
2017-11-05T14:35:06.445Z,95.6
2017-11-05T14:36:05.875Z,95.6
2017-11-05T14:37:05.018Z,95.6
2017-11-05T14:38:04.032Z,95.7
2017-11-05T14:40:02.566Z,95.9
2017-11-05T14:41:01.583Z,95.4
2017-11-05T14:43:59.106Z,95.6
2017-11-05T14:44:58.625Z,95.3
2017-11-05T14:45:57.775Z,95.3
2017-11-05T14:46:56.698Z,95.6
2017-11-05T14:47:56.085Z,95.6
2017-11-05T14:48:55.243Z,95.6
2017-11-05T14:49:54.265Z,95.6
2017-11-05T14:51:52.429Z,95.6
2017-11-05T14:52:51.574Z,95.5
2017-11-05T14:54:50.349Z,95.6
2017-11-05T14:55:49.365Z,95.8
2017-11-05T14:56:48.512Z,95.8
2017-11-05T14:57:47.534Z,95.9
2017-11-05T14:58:18.124Z,95.9
2017-11-05T15:00:45.350Z,95.9
2017-11-05T15:01:43.999Z,95.8
2017-11-05T15:02:43.657Z,96.1
2017-11-05T15:03:42.433Z,96.3
2017-11-05T15:04:41.584Z,95.9
2017-11-05T15:05:41.107Z,95.9
2017-11-05T15:06:40.134Z,96.2
2017-11-05T15:07:39.089Z,95.9
2017-11-05T15:08:09.689Z,95.9
2017-11-05T15:09:37.396Z,95.8
2017-11-05T15:10:36.784Z,96
2017-11-05T15:11:35.676Z,95.8
2017-11-05T15:12:34.843Z,96.1
2017-11-05T15:14:33.259Z,96.1
2017-11-05T15:15:32.415Z,96.3
2017-11-05T15:16:31.432Z,96.2
2017-11-05T15:17:30.686Z,96.5
2017-11-05T15:18:29.825Z,96.5
2017-11-05T15:19:28.968Z,96.4
2017-11-05T15:20:27.999Z,96.2
2017-11-05T15:21:27.656Z,96.3
2017-11-05T15:22:26.804Z,96.2
2017-11-05T15:23:25.821Z,96.4
2017-11-05T15:24:24.601Z,96.3
2017-11-05T15:25:23.856Z,96.5
2017-11-05T15:26:23.000Z,96.5
2017-11-05T15:27:22.274Z,96.4
2017-11-05T15:29:20.541Z,96.3
2017-11-05T15:30:19.830Z,96.3
2017-11-05T15:31:18.845Z,96.3
2017-11-05T15:33:17.119Z,96.2
2017-11-05T15:35:15.390Z,96.4
2017-11-05T15:36:14.399Z,96.4
2017-11-05T15:37:13.698Z,96.5
2017-11-05T15:38:12.710Z,96.5
2017-11-05T15:41:10.514Z,96.4
2017-11-05T15:43:08.687Z,96.6
2017-11-05T15:45:06.730Z,96.2
2017-11-05T15:46:06.251Z,96.3
2017-11-05T15:47:05.027Z,96.2
2017-11-05T15:48:04.317Z,96
2017-11-05T15:50:02.373Z,96.1
2017-11-05T15:51:01.890Z,95.7
2017-11-05T15:53:00.297Z,95.9
2017-11-05T15:53:59.069Z,95.2
2017-11-05T15:55:57.575Z,95.8
2017-11-05T15:56:56.608Z,95.6
2017-11-05T15:57:55.880Z,95.8
2017-11-05T15:58:54.918Z,96.2
2017-11-05T16:00:53.183Z,96.4
2017-11-05T16:01:52.458Z,96.4
2017-11-05T16:02:51.340Z,96.5
2017-11-05T16:03:50.355Z,96.3
2017-11-05T16:05:48.901Z,96.3
2017-11-05T16:07:47.299Z,96.4
2017-11-05T16:08:46.186Z,96.6
2017-11-05T16:09:45.706Z,96.2
2017-11-05T16:10:44.854Z,96.5
2017-11-05T16:11:43.600Z,96
2017-11-05T16:12:42.887Z,94.5
2017-11-05T16:14:41.284Z,93.9
2017-11-05T16:15:40.433Z,94.3
2017-11-05T16:16:39.714Z,94.1
2017-11-05T16:17:38.349Z,93.9
2017-11-05T16:18:37.736Z,94.4
2017-11-05T16:19:37.022Z,94.7
2017-11-05T16:20:36.038Z,94.7
2017-11-05T16:21:35.450Z,94.7
2017-11-05T16:22:34.462Z,94.9
2017-11-05T16:23:33.611Z,95
2017-11-05T16:24:32.758Z,94.5
2017-11-05T16:26:30.932Z,94.6
2017-11-05T16:27:01.262Z,94.6
2017-11-05T16:27:31.590Z,94.3
2017-11-05T16:28:29.098Z,94.5
2017-11-05T16:31:26.518Z,94.9
2017-11-05T16:35:23.199Z,94.1
2017-11-05T16:36:22.219Z,94
2017-11-05T16:37:21.608Z,94.6
2017-11-05T16:39:19.511Z,94.6
2017-11-05T16:43:16.069Z,95.4
2017-11-05T16:43:46.531Z,95.4
2017-11-05T16:44:17.003Z,95.7
2017-11-05T16:44:47.591Z,95.7
2017-11-05T16:47:12.793Z,96.1
2017-11-05T16:48:11.948Z,95.9
2017-11-05T16:50:09.987Z,95.8
2017-11-05T16:51:09.008Z,95.6
2017-11-05T16:52:07.888Z,95.9
2017-11-05T16:53:07.206Z,96
2017-11-05T16:54:06.441Z,96
2017-11-05T16:55:05.581Z,95.9
2017-11-05T16:59:02.039Z,95.5
2017-11-05T17:01:00.473Z,95.3
2017-11-05T17:01:59.252Z,95.5
2017-11-05T17:02:58.274Z,95.2
2017-11-05T17:03:57.932Z,95.2
2017-11-05T17:05:56.230Z,95.6
2017-11-05T17:08:53.417Z,95.2
2017-11-05T17:09:52.307Z,95.3
2017-11-05T17:11:50.710Z,95.3
2017-11-05T17:12:49.864Z,94.5
2017-11-05T17:13:49.190Z,94.3
2017-11-05T17:15:46.988Z,94.9
2017-11-05T17:16:46.128Z,94.3
2017-11-05T17:17:45.652Z,95.1
2017-11-05T17:18:44.301Z,94.6
2017-11-05T17:19:43.454Z,95.1
2017-11-05T17:22:40.766Z,95.5